createdAt,value
2024-02-13T00:02:23.170Z,3.75
2024-02-13T00:04:49.567Z,5.65
2024-02-13T00:07:16.006Z,3.88
2024-02-13T00:09:45.279Z,6.65
2024-02-13T00:12:11.679Z,6.07
2024-02-13T00:14:38.623Z,5.93
2024-02-13T00:17:05.031Z,4.63
2024-02-13T00:19:31.452Z,6.10
2024-02-13T00:21:57.893Z,6.63
2024-02-13T00:24:24.238Z,6.00
2024-02-13T00:26:50.622Z,6.43
2024-02-13T00:29:17.160Z,4.95
2024-02-13T00:31:43.527Z,7.07
2024-02-13T00:34:09.928Z,7.68
2024-02-13T00:36:36.364Z,6.05
2024-02-13T00:39:02.754Z,6.22
2024-02-13T00:41:29.324Z,6.35
2024-02-13T00:43:55.761Z,10.30
2024-02-13T00:46:22.104Z,5.88
2024-02-13T00:48:48.570Z,6.20
2024-02-13T00:51:15.004Z,8.18
2024-02-13T00:53:41.433Z,4.63
2024-02-13T00:56:07.944Z,6.20
2024-02-13T00:58:37.150Z,6.70
2024-02-13T01:01:03.808Z,9.40
2024-02-13T01:03:31.001Z,5.68
2024-02-13T01:05:57.536Z,5.97
2024-02-13T01:08:24.029Z,5.28
2024-02-13T01:10:51.903Z,5.90
2024-02-13T01:13:18.374Z,9.43
2024-02-13T01:15:45.342Z,7.38
2024-02-13T01:18:12.457Z,9.10
2024-02-13T01:20:38.914Z,10.52
2024-02-13T01:23:05.345Z,8.82
2024-02-13T01:25:31.747Z,5.97
2024-02-13T01:27:58.172Z,6.70
2024-02-13T01:30:24.842Z,8.27
2024-02-13T01:32:51.379Z,6.03
2024-02-13T01:35:17.802Z,7.53
2024-02-13T01:37:44.228Z,7.95
2024-02-13T01:40:12.439Z,8.13
2024-02-13T01:42:39.097Z,6.72
2024-02-13T01:45:09.191Z,7.72
2024-02-13T01:47:36.878Z,8.55
2024-02-13T01:50:04.033Z,9.07
2024-02-13T01:52:30.436Z,6.93
2024-02-13T01:54:56.848Z,7.95
2024-02-13T01:57:23.249Z,10.00
2024-02-13T01:59:49.902Z,9.93
2024-02-13T02:02:16.383Z,12.88
2024-02-13T02:04:43.085Z,10.63
2024-02-13T02:07:10.026Z,7.85
2024-02-13T02:09:36.431Z,8.45
2024-02-13T02:12:03.039Z,9.43
2024-02-13T02:14:29.452Z,12.32
2024-02-13T02:17:07.275Z,8.82
2024-02-13T02:19:33.701Z,9.35
2024-02-13T02:22:00.120Z,12.85
2024-02-13T02:24:26.636Z,9.32
2024-02-13T02:26:53.450Z,8.30
2024-02-13T02:29:19.904Z,11.68
2024-02-13T02:31:46.312Z,10.35
2024-02-13T02:34:12.743Z,14.15
2024-02-13T02:36:39.156Z,15.98
2024-02-13T02:39:05.517Z,13.55
2024-02-13T02:41:31.923Z,10.95
2024-02-13T02:43:58.303Z,10.88
2024-02-13T02:46:24.665Z,10.10
2024-02-13T02:48:51.161Z,9.70
2024-02-13T02:51:17.595Z,11.40
2024-02-13T02:53:44.018Z,12.48
2024-02-13T02:56:10.503Z,8.18
2024-02-13T02:58:36.911Z,12.68
2024-02-13T03:01:03.369Z,7.97
2024-02-13T03:03:29.845Z,12.75
2024-02-13T03:05:56.345Z,12.23
2024-02-13T03:08:22.890Z,9.98
2024-02-13T03:10:49.268Z,8.43
2024-02-13T03:13:15.757Z,8.93
2024-02-13T03:15:42.251Z,12.07
2024-02-13T03:18:11.963Z,7.75
2024-02-13T03:20:39.200Z,13.73
2024-02-13T03:23:05.598Z,10.98
2024-02-13T03:25:31.947Z,9.85
2024-02-13T03:27:58.296Z,15.23
2024-02-13T03:30:24.684Z,10.77
2024-02-13T03:32:51.388Z,11.65
2024-02-13T03:35:17.873Z,9.68
2024-02-13T03:37:44.253Z,13.57
2024-02-13T03:40:11.078Z,13.38
2024-02-13T03:42:37.536Z,9.43
2024-02-13T03:45:04.144Z,8.90
2024-02-13T03:47:30.552Z,12.70
2024-02-13T03:49:57.036Z,10.85
2024-02-13T03:52:23.418Z,9.30
2024-02-13T03:54:49.776Z,12.48
2024-02-13T03:57:16.146Z,12.07
2024-02-13T03:59:42.620Z,13.57
2024-02-13T04:02:09.127Z,10.93
2024-02-13T04:04:35.909Z,9.38
2024-02-13T04:07:02.311Z,12.63
2024-02-13T04:09:28.778Z,10.80
2024-02-13T04:11:55.178Z,12.43
2024-02-13T04:14:21.575Z,11.63
2024-02-13T04:16:47.956Z,9.48
2024-02-13T04:19:14.367Z,12.60
2024-02-13T04:21:41.743Z,11.63
2024-02-13T04:24:08.944Z,14.40
2024-02-13T04:26:42.255Z,11.75
2024-02-13T04:29:08.792Z,13.80
2024-02-13T04:31:35.732Z,10.55
2024-02-13T04:34:02.390Z,13.85
2024-02-13T04:36:29.266Z,12.77
2024-02-13T04:38:55.825Z,12.25
2024-02-13T04:41:22.268Z,13.18
2024-02-13T04:43:48.833Z,15.98
2024-02-13T04:46:15.329Z,13.25
2024-02-13T04:48:41.757Z,14.75
2024-02-13T04:51:08.281Z,15.73
2024-02-13T04:53:34.746Z,18.17
2024-02-13T04:56:01.165Z,16.40
2024-02-13T04:58:31.650Z,14.90
2024-02-13T05:00:58.137Z,15.07
2024-02-13T05:03:24.522Z,17.98
2024-02-13T05:05:51.026Z,13.93
2024-02-13T05:08:18.446Z,17.30
2024-02-13T05:10:44.839Z,15.02
2024-02-13T05:13:11.232Z,19.63
2024-02-13T05:15:37.593Z,16.20
2024-02-13T05:18:05.259Z,16.25
2024-02-13T05:20:32.968Z,18.15
2024-02-13T05:22:59.550Z,17.45
2024-02-13T05:25:26.020Z,17.42
2024-02-13T05:27:52.425Z,18.20
2024-02-13T05:30:18.795Z,17.02
2024-02-13T05:32:45.328Z,18.40
2024-02-13T05:35:11.778Z,15.07
2024-02-13T05:37:38.142Z,15.10
2024-02-13T05:40:06.456Z,15.50
2024-02-13T05:42:33.095Z,16.58
2024-02-13T05:44:59.448Z,17.63
2024-02-13T05:47:26.137Z,17.23
2024-02-13T05:49:53.025Z,16.45
2024-02-13T05:52:19.415Z,26.90
2024-02-13T05:54:45.889Z,83.28
2024-02-13T05:57:12.342Z,22.85
2024-02-13T05:59:38.781Z,18.67
2024-02-13T06:02:05.169Z,17.65
2024-02-13T06:04:31.570Z,17.70
2024-02-13T06:06:58.012Z,15.02
2024-02-13T06:09:24.389Z,15.27
2024-02-13T06:11:50.893Z,14.48
2024-02-13T06:14:17.361Z,16.17
2024-02-13T06:16:43.780Z,20.70
2024-02-13T06:19:10.284Z,17.60
2024-02-13T06:21:36.836Z,17.70
2024-02-13T06:24:03.397Z,20.80
2024-02-13T06:26:30.265Z,17.92
2024-02-13T06:28:56.643Z,17.85
2024-02-13T06:31:23.017Z,17.20
2024-02-13T06:33:49.593Z,19.35
2024-02-13T06:36:18.947Z,17.35
2024-02-13T06:38:45.361Z,20.50
2024-02-13T06:41:12.131Z,19.20
2024-02-13T06:43:38.670Z,18.95
2024-02-13T06:46:05.039Z,20.20
2024-02-13T06:48:32.052Z,22.02
2024-02-13T06:50:58.725Z,18.48
2024-02-13T06:53:25.216Z,19.30
2024-02-13T06:55:51.674Z,18.92
2024-02-13T06:58:18.037Z,21.98
2024-02-13T07:00:44.506Z,24.83
2024-02-13T07:03:11.142Z,23.30
2024-02-13T07:05:37.854Z,20.10
2024-02-13T07:08:04.871Z,23.05
2024-02-13T07:10:31.423Z,19.00
2024-02-13T07:12:57.927Z,23.92
2024-02-13T07:15:24.469Z,22.50
2024-02-13T07:17:56.914Z,24.83
2024-02-13T07:20:27.235Z,25.00
2024-02-13T07:22:53.668Z,25.92
2024-02-13T07:25:20.079Z,20.27
2024-02-13T07:27:48.268Z,21.80
2024-02-13T07:30:14.864Z,20.33
2024-02-13T07:32:44.248Z,21.52
2024-02-13T07:35:10.813Z,24.45
2024-02-13T07:37:37.466Z,21.85
2024-02-13T07:40:04.119Z,23.67
2024-02-13T07:42:30.956Z,25.45
2024-02-13T07:44:57.707Z,21.33
2024-02-13T07:47:24.451Z,20.67
2024-02-13T07:49:51.465Z,23.50
2024-02-13T07:52:18.009Z,24.27
2024-02-13T07:54:47.861Z,20.63
2024-02-13T07:57:14.777Z,22.30
2024-02-13T07:59:42.165Z,22.88
2024-02-13T08:02:09.674Z,19.30
2024-02-13T08:04:36.848Z,19.05
2024-02-13T08:07:03.571Z,19.52
2024-02-13T08:09:32.298Z,21.90
2024-02-13T08:11:58.673Z,19.63
2024-02-13T08:14:25.192Z,17.35
2024-02-13T08:16:51.606Z,20.92
2024-02-13T08:19:17.977Z,21.30
2024-02-13T08:21:44.393Z,20.42
2024-02-13T08:24:10.771Z,17.05
2024-02-13T08:26:37.146Z,18.73
2024-02-13T08:29:03.578Z,20.83
2024-02-13T08:31:29.983Z,20.00
2024-02-13T08:33:56.467Z,18.05
2024-02-13T08:36:23.151Z,26.42
2024-02-13T08:38:49.755Z,17.08
2024-02-13T08:41:16.216Z,19.63
2024-02-13T08:43:42.901Z,22.25
2024-02-13T08:46:09.524Z,21.60
2024-02-13T08:48:35.994Z,17.58
2024-02-13T08:51:02.521Z,23.92
2024-02-13T08:53:30.168Z,21.42
2024-02-13T08:55:56.550Z,25.13
2024-02-13T08:58:22.938Z,19.02
2024-02-13T09:00:49.423Z,18.95
2024-02-13T09:03:16.883Z,21.95
2024-02-13T09:05:43.420Z,21.00
2024-02-13T09:08:09.823Z,21.05
2024-02-13T09:10:36.177Z,21.30
2024-02-13T09:13:02.753Z,20.35
2024-02-13T09:15:29.140Z,22.35
2024-02-13T09:17:55.591Z,18.50
2024-02-13T09:20:22.128Z,22.90
2024-02-13T09:22:49.239Z,19.52
2024-02-13T09:25:15.853Z,16.30
2024-02-13T09:27:42.288Z,19.40
2024-02-13T09:30:09.251Z,17.95
2024-02-13T09:32:35.684Z,16.05
2024-02-13T09:35:04.482Z,15.90
2024-02-13T09:37:30.834Z,16.27
2024-02-13T09:39:57.212Z,16.35
2024-02-13T09:42:26.559Z,15.60
2024-02-13T09:44:53.066Z,13.25
2024-02-13T09:47:19.544Z,18.17
2024-02-13T09:49:47.863Z,13.43
2024-02-13T09:52:14.807Z,11.10
2024-02-13T09:54:41.901Z,14.65
2024-02-13T09:57:08.588Z,14.63
2024-02-13T09:59:35.170Z,12.02
2024-02-13T10:02:02.097Z,11.05
2024-02-13T10:04:28.522Z,11.25
2024-02-13T10:06:55.136Z,11.07
2024-02-13T10:09:21.776Z,12.75
2024-02-13T10:11:48.212Z,12.68
2024-02-13T10:14:18.702Z,9.70
2024-02-13T10:16:45.076Z,11.25
2024-02-13T10:19:12.987Z,9.52
2024-02-13T10:21:43.533Z,8.98
2024-02-13T10:24:11.282Z,9.13
2024-02-13T10:26:37.875Z,8.77
2024-02-13T10:29:04.749Z,9.88
2024-02-13T10:31:31.257Z,7.90
2024-02-13T10:33:57.658Z,10.77
2024-02-13T10:36:24.098Z,9.75
2024-02-13T10:38:50.541Z,5.57
2024-02-13T10:41:20.282Z,7.72
2024-02-13T10:43:47.684Z,5.50
2024-02-13T10:46:16.014Z,10.73
2024-02-13T10:48:47.478Z,5.78
2024-02-13T10:51:17.767Z,4.60
2024-02-13T10:53:47.556Z,8.82
2024-02-13T10:56:14.300Z,5.43
2024-02-13T10:58:43.472Z,7.30
2024-02-13T11:01:12.216Z,7.38
2024-02-13T11:03:38.879Z,3.90
2024-02-13T11:06:05.734Z,3.90
2024-02-13T11:08:32.588Z,4.88
2024-02-13T11:11:02.071Z,8.57
2024-02-13T11:13:28.749Z,10.18
2024-02-13T11:15:56.515Z,6.82
2024-02-13T11:18:23.787Z,6.70
2024-02-13T11:20:51.686Z,7.00
2024-02-13T11:23:18.235Z,9.18
2024-02-13T11:26:00.610Z,10.00
2024-02-13T11:28:38.097Z,8.13
2024-02-13T11:31:14.599Z,7.90
2024-02-13T11:34:06.758Z,5.22
2024-02-13T11:36:34.223Z,9.15
2024-02-13T11:39:03.997Z,4.78
2024-02-13T11:41:30.815Z,9.05
2024-02-13T11:44:12.984Z,7.65
2024-02-13T11:46:40.317Z,7.95
2024-02-13T11:49:12.162Z,9.20
2024-02-13T11:51:39.217Z,7.22
2024-02-13T11:54:05.984Z,6.05
2024-02-13T11:56:32.938Z,5.38
2024-02-13T11:59:08.847Z,9.05
2024-02-13T12:01:36.041Z,8.02
2024-02-13T12:04:02.509Z,5.18
2024-02-13T12:06:29.002Z,6.55
2024-02-13T12:08:55.609Z,4.95
2024-02-13T12:11:22.121Z,7.93
2024-02-13T12:13:48.700Z,6.32
2024-02-13T12:16:15.160Z,7.15
2024-02-13T12:18:41.940Z,6.80
2024-02-13T12:21:08.414Z,2.67
2024-02-13T12:23:34.795Z,5.97
2024-02-13T12:26:02.154Z,6.88
2024-02-13T12:28:28.986Z,8.07
2024-02-13T12:30:55.388Z,6.03
2024-02-13T12:33:22.269Z,5.32
2024-02-13T12:36:08.122Z,6.07
2024-02-13T12:38:35.609Z,3.92
2024-02-13T12:41:02.046Z,6.35
2024-02-13T12:43:28.457Z,6.38
2024-02-13T12:45:55.664Z,7.97
2024-02-13T12:48:23.280Z,6.63
2024-02-13T12:50:49.941Z,4.57
2024-02-13T12:53:16.510Z,3.95
2024-02-13T12:55:43.892Z,4.28
2024-02-13T12:58:10.950Z,8.15
2024-02-13T13:00:37.314Z,5.00
2024-02-13T13:03:03.829Z,3.50
2024-02-13T13:05:30.309Z,4.80
2024-02-13T13:07:56.746Z,3.88
2024-02-13T13:10:23.274Z,6.07
2024-02-13T13:12:50.086Z,5.18
2024-02-13T13:15:22.459Z,3.30
2024-02-13T13:17:54.409Z,2.63
2024-02-13T13:20:20.944Z,5.90
2024-02-13T13:22:47.362Z,3.72
2024-02-13T13:25:13.883Z,3.00
2024-02-13T13:27:40.261Z,4.03
2024-02-13T13:30:09.404Z,3.17
2024-02-13T13:32:36.577Z,3.00
2024-02-13T13:35:03.327Z,5.88
2024-02-13T13:37:29.777Z,2.45
2024-02-13T13:39:56.314Z,5.60
2024-02-13T13:42:22.712Z,4.65
2024-02-13T13:44:49.095Z,7.22
2024-02-13T13:47:15.862Z,5.75
2024-02-13T13:49:42.658Z,3.00
2024-02-13T13:52:09.220Z,4.80
2024-02-13T13:54:35.659Z,1.83
2024-02-13T13:57:02.036Z,1.98
2024-02-13T13:59:28.511Z,4.20
2024-02-13T14:01:54.939Z,3.35
2024-02-13T14:04:21.290Z,1.70
2024-02-13T14:06:47.719Z,4.18
2024-02-13T14:09:14.234Z,3.00
2024-02-13T14:11:40.741Z,5.35
2024-02-13T14:14:07.180Z,2.90
2024-02-13T14:16:33.618Z,7.05
2024-02-13T14:19:00.083Z,4.38
2024-02-13T14:21:26.736Z,2.70
2024-02-13T14:23:53.648Z,5.47
2024-02-13T14:26:20.301Z,4.90
2024-02-13T14:28:47.888Z,3.72
2024-02-13T14:31:14.309Z,5.65
2024-02-13T14:33:40.969Z,16.83
2024-02-13T14:36:07.703Z,23.50
2024-02-13T14:38:34.153Z,5.38
2024-02-13T14:41:00.543Z,4.65
2024-02-13T14:43:26.925Z,4.78
2024-02-13T14:45:53.362Z,3.78
2024-02-13T14:48:19.988Z,1.40
2024-02-13T14:50:46.505Z,6.40
2024-02-13T14:53:12.927Z,4.20
2024-02-13T14:55:39.285Z,3.03
2024-02-13T14:58:14.887Z,2.55
2024-02-13T15:00:48.904Z,3.25
2024-02-13T15:03:15.312Z,3.83
2024-02-13T15:05:41.739Z,2.00
2024-02-13T15:08:08.239Z,4.95
2024-02-13T15:10:34.683Z,6.00
2024-02-13T15:13:02.456Z,4.82
2024-02-13T15:15:29.009Z,3.47
2024-02-13T15:17:55.423Z,7.05
2024-02-13T15:20:21.915Z,1.60
2024-02-13T15:22:48.564Z,2.22
2024-02-13T15:25:14.966Z,2.80
2024-02-13T15:27:41.654Z,3.63
2024-02-13T15:30:08.678Z,2.17
2024-02-13T15:32:35.185Z,4.10
2024-02-13T15:35:01.610Z,4.55
2024-02-13T15:37:28.025Z,3.33
2024-02-13T15:41:05.279Z,3.72
2024-02-13T15:44:28.781Z,3.67
2024-02-13T15:47:51.630Z,68.80
2024-02-13T15:51:16.316Z,7.10
2024-02-13T15:54:41.236Z,4.70
2024-02-13T15:58:06.054Z,1.23
2024-02-13T16:00:50.676Z,1.92
2024-02-13T16:04:08.102Z,1.75
2024-02-13T16:06:53.407Z,1.80
2024-02-13T16:09:51.638Z,5.28
2024-02-13T16:13:09.738Z,3.47
2024-02-13T16:16:26.801Z,2.20
2024-02-13T16:19:31.891Z,4.97
2024-02-13T16:22:03.470Z,4.07
2024-02-13T16:24:31.307Z,3.70
2024-02-13T16:27:43.687Z,3.40
2024-02-13T16:31:08.171Z,4.75
2024-02-13T16:34:30.629Z,5.68
2024-02-13T16:37:13.263Z,3.40
2024-02-13T16:40:12.704Z,2.42
2024-02-13T16:43:13.842Z,3.13
2024-02-13T16:45:41.125Z,3.55
2024-02-13T16:48:18.204Z,5.57
2024-02-13T16:50:50.788Z,4.72
2024-02-13T16:53:17.224Z,6.03
2024-02-13T16:55:43.641Z,4.88
2024-02-13T16:58:10.075Z,5.05
2024-02-13T17:00:36.512Z,6.18
2024-02-13T17:03:03.988Z,5.63
2024-02-13T17:05:30.571Z,8.00
2024-02-13T17:07:56.992Z,3.97
2024-02-13T17:10:23.393Z,6.97
2024-02-13T17:12:49.787Z,3.75
2024-02-13T17:15:16.534Z,5.45
2024-02-13T17:17:43.321Z,7.13
2024-02-13T17:20:10.823Z,9.23
2024-02-13T17:22:37.250Z,10.00
2024-02-13T17:25:03.849Z,5.47
2024-02-13T17:27:30.244Z,8.30
2024-02-13T17:29:56.758Z,5.72
2024-02-13T17:32:23.222Z,5.82
2024-02-13T17:34:49.710Z,5.38
2024-02-13T17:37:16.104Z,6.30
2024-02-13T17:39:42.482Z,4.85
2024-02-13T17:42:08.972Z,4.80
2024-02-13T17:44:35.415Z,7.00
2024-02-13T17:47:01.873Z,7.30
2024-02-13T17:49:28.377Z,4.47
2024-02-13T17:51:54.760Z,9.10
2024-02-13T17:54:21.138Z,5.18
2024-02-13T17:56:47.586Z,4.90
2024-02-13T17:59:14.028Z,5.47
2024-02-13T18:01:47.977Z,9.80
2024-02-13T18:04:14.471Z,9.85
2024-02-13T18:06:41.070Z,5.03
2024-02-13T18:09:07.660Z,4.07
2024-02-13T18:11:34.185Z,24.50
2024-02-13T18:14:00.586Z,28.55
2024-02-13T18:16:26.964Z,6.60
2024-02-13T18:18:53.505Z,3.35
2024-02-13T18:21:20.180Z,3.72
2024-02-13T18:23:46.652Z,6.57
2024-02-13T18:26:13.027Z,3.20
2024-02-13T18:28:39.392Z,4.15
2024-02-13T18:31:06.046Z,5.32
2024-02-13T18:33:32.643Z,7.75
2024-02-13T18:35:59.452Z,2.72
2024-02-13T18:38:25.859Z,8.82
2024-02-13T18:40:54.890Z,10.30
2024-02-13T18:43:21.258Z,5.43
2024-02-13T18:45:47.670Z,5.03
2024-02-13T18:48:14.272Z,3.25
2024-02-13T18:50:41.281Z,3.20
2024-02-13T18:53:07.730Z,3.85
2024-02-13T18:55:34.116Z,3.22
2024-02-13T18:58:00.503Z,4.05
2024-02-13T19:00:27.201Z,7.45
2024-02-13T19:02:53.605Z,3.60
2024-02-13T19:05:20.281Z,4.53
2024-02-13T19:07:47.006Z,3.38
2024-02-13T19:10:13.637Z,4.78
2024-02-13T19:12:40.038Z,4.45
2024-02-13T19:15:06.671Z,2.65
2024-02-13T19:17:34.458Z,2.45
2024-02-13T19:20:00.966Z,2.65
2024-02-13T19:22:27.360Z,2.92
2024-02-13T19:24:53.736Z,2.30
2024-02-13T19:29:46.718Z,4.07
2024-02-13T19:32:13.086Z,4.35
2024-02-13T19:34:39.356Z,3.22
2024-02-13T19:37:05.811Z,7.07
2024-02-13T19:41:58.668Z,4.57
2024-02-13T19:44:27.859Z,3.63
2024-02-13T19:46:55.335Z,4.40
2024-02-13T19:49:21.837Z,3.53
2024-02-13T19:51:48.332Z,7.53
2024-02-13T19:54:14.700Z,4.97
2024-02-13T19:56:44.357Z,5.13
2024-02-13T19:59:11.778Z,3.25
2024-02-13T20:06:32.650Z,5.15
2024-02-13T20:11:26.001Z,5.53
2024-02-13T20:16:19.986Z,2.38
2024-02-13T20:18:47.387Z,3.30
2024-02-13T20:21:13.929Z,3.17
2024-02-13T20:23:40.322Z,2.85
2024-02-13T20:26:06.616Z,4.47
2024-02-13T20:28:33.285Z,2.35
2024-02-13T20:35:59.274Z,4.90
2024-02-13T20:43:18.831Z,5.75
2024-02-13T20:50:38.197Z,6.72
2024-02-13T20:53:04.728Z,4.53
2024-02-13T20:55:31.123Z,5.00
2024-02-13T20:57:57.526Z,4.35
2024-02-13T21:00:24.464Z,3.97
2024-02-13T21:02:50.855Z,6.88
2024-02-13T21:05:17.292Z,5.88
2024-02-13T21:07:43.663Z,5.35
2024-02-13T21:10:10.478Z,5.90
2024-02-13T21:12:37.067Z,6.20
2024-02-13T21:24:50.231Z,4.65
2024-02-13T21:29:53.264Z,4.57
2024-02-13T21:32:19.693Z,4.13
2024-02-13T21:34:46.075Z,5.82
2024-02-13T21:37:12.513Z,6.47
2024-02-13T21:39:38.956Z,4.25
2024-02-13T21:42:05.619Z,4.78
2024-02-13T21:44:32.061Z,5.00
2024-02-13T21:46:58.554Z,4.75
2024-02-13T21:49:25.200Z,2.78
2024-02-13T21:51:51.709Z,4.30
2024-02-13T21:54:18.093Z,3.03
2024-02-13T21:56:44.482Z,4.40
2024-02-13T21:59:10.885Z,5.05
2024-02-13T22:01:37.276Z,4.00
2024-02-13T22:04:03.711Z,5.15
2024-02-13T22:06:30.289Z,7.80
2024-02-13T22:08:56.918Z,8.27
2024-02-13T22:13:49.793Z,5.68
2024-02-13T22:16:16.184Z,5.70
2024-02-13T22:18:42.642Z,8.23
2024-02-13T22:26:02.168Z,5.22
2024-02-13T22:30:55.344Z,7.75
2024-02-13T22:33:21.924Z,4.68
2024-02-13T22:35:48.480Z,4.47
2024-02-13T22:38:14.893Z,5.45
2024-02-13T22:43:07.596Z,8.52
2024-02-13T22:48:04.248Z,8.05
2024-02-13T22:50:30.910Z,5.47
2024-02-13T22:52:57.375Z,6.78
2024-02-13T22:55:23.738Z,5.10
2024-02-13T22:57:50.101Z,5.43
2024-02-13T23:00:16.811Z,5.22
2024-02-13T23:05:09.719Z,5.43
2024-02-13T23:07:36.153Z,5.95
2024-02-13T23:10:02.551Z,5.95
2024-02-13T23:12:28.924Z,7.13
2024-02-13T23:14:55.384Z,6.13
2024-02-13T23:17:21.825Z,7.93
2024-02-13T23:19:48.250Z,6.55
2024-02-13T23:22:14.712Z,6.60
2024-02-13T23:24:41.072Z,4.57
2024-02-13T23:27:07.494Z,6.05
2024-02-13T23:29:33.963Z,4.43
2024-02-13T23:32:00.338Z,4.85
2024-02-13T23:34:26.751Z,4.38
2024-02-13T23:36:53.213Z,7.38
2024-02-13T23:39:19.726Z,4.75
2024-02-13T23:41:46.180Z,5.88
2024-02-13T23:44:12.598Z,5.88
2024-02-13T23:46:38.940Z,7.60
2024-02-13T23:49:05.447Z,3.90
2024-02-13T23:51:32.266Z,4.63
2024-02-13T23:53:58.743Z,5.82
2024-02-13T23:56:25.173Z,5.75
2024-02-13T23:58:51.967Z,4.32
